createdAt,value
2022-08-19T00:00:08.574Z,87.93
2022-08-19T00:02:37.790Z,87.99
2022-08-19T00:05:20.514Z,87.90
2022-08-19T00:07:49.739Z,88.29
2022-08-19T00:10:23.089Z,88.60
2022-08-19T00:12:52.391Z,88.76
2022-08-19T00:15:24.947Z,89.11
2022-08-19T00:17:53.361Z,89.33
2022-08-19T00:20:28.286Z,89.45
2022-08-19T00:23:05.140Z,89.67
2022-08-19T00:25:35.570Z,89.70
2022-08-19T00:28:06.596Z,89.89
2022-08-19T00:30:34.974Z,89.82
2022-08-19T00:33:04.472Z,90.02
2022-08-19T00:35:36.936Z,90.17
2022-08-19T00:38:07.317Z,90.34
2022-08-19T00:40:37.592Z,90.31
2022-08-19T00:43:14.142Z,90.21
2022-08-19T00:45:45.929Z,90.21
2022-08-19T00:48:14.823Z,90.21
2022-08-19T00:50:52.100Z,90.31
2022-08-19T00:53:27.489Z,90.63
2022-08-19T00:55:58.580Z,90.64
2022-08-19T00:58:31.394Z,90.52
2022-08-19T01:00:59.937Z,90.26
2022-08-19T01:03:28.295Z,89.91
2022-08-19T01:05:58.423Z,89.83
2022-08-19T01:08:31.324Z,89.64
2022-08-19T01:11:03.128Z,89.38
2022-08-19T01:13:49.183Z,89.42
2022-08-19T01:16:20.512Z,89.12
2022-08-19T01:18:53.115Z,89.02
2022-08-19T01:21:29.148Z,88.96
2022-08-19T01:24:06.394Z,89.15
2022-08-19T01:26:42.069Z,89.28
2022-08-19T01:29:11.656Z,89.43
2022-08-19T01:31:40.355Z,89.44
2022-08-19T01:34:13.439Z,89.17
2022-08-19T01:36:48.365Z,89.50
2022-08-19T01:39:29.913Z,89.59
2022-08-19T01:41:58.340Z,89.60
2022-08-19T01:44:29.873Z,89.37
2022-08-19T01:46:58.381Z,89.38
2022-08-19T01:49:27.660Z,89.79
2022-08-19T01:51:58.388Z,89.89
2022-08-19T01:54:28.181Z,89.84
2022-08-19T01:57:03.836Z,89.89
2022-08-19T01:59:33.660Z,90.11
2022-08-19T02:02:02.212Z,90.11
2022-08-19T02:04:30.586Z,90.33
2022-08-19T02:07:00.020Z,90.41
2022-08-19T02:09:30.848Z,90.41
2022-08-19T02:11:59.486Z,90.48
2022-08-19T02:14:28.808Z,90.49
2022-08-19T02:17:00.748Z,90.54
2022-08-19T02:19:29.350Z,90.57
2022-08-19T02:21:57.630Z,90.57
2022-08-19T02:24:28.590Z,90.84
2022-08-19T02:27:00.914Z,90.94
2022-08-19T02:29:29.256Z,91.02
2022-08-19T02:31:58.079Z,91.12
2022-08-19T02:34:30.454Z,91.17
2022-08-19T02:37:03.447Z,91.37
2022-08-19T02:39:31.202Z,91.19
2022-08-19T02:42:02.237Z,91.26
2022-08-19T02:44:32.147Z,91.31
2022-08-19T02:47:01.299Z,91.49
2022-08-19T02:49:30.181Z,91.49
2022-08-19T02:52:07.557Z,91.75
2022-08-19T02:54:36.071Z,92.01
2022-08-19T02:57:06.602Z,91.79
2022-08-19T02:59:35.325Z,91.89
2022-08-19T03:02:03.855Z,91.89
2022-08-19T03:04:34.094Z,91.92
2022-08-19T03:07:10.783Z,91.74
2022-08-19T03:09:44.883Z,91.98
2022-08-19T03:12:16.885Z,91.98
2022-08-19T03:14:49.232Z,91.97
2022-08-19T03:17:19.081Z,92.11
2022-08-19T03:19:50.586Z,92.11
2022-08-19T03:22:22.824Z,92.14
2022-08-19T03:24:51.277Z,92.34
2022-08-19T03:27:22.587Z,92.31
2022-08-19T03:29:51.576Z,92.26
2022-08-19T03:32:32.550Z,92.28
2022-08-19T03:35:01.845Z,92.47
2022-08-19T03:37:30.674Z,92.64
2022-08-19T03:39:59.074Z,92.64
2022-08-19T03:42:38.513Z,92.72
2022-08-19T03:45:17.683Z,92.63
2022-08-19T03:47:46.498Z,92.67
2022-08-19T03:50:16.045Z,92.59
2022-08-19T03:52:46.987Z,92.66
2022-08-19T03:55:15.587Z,93.04
2022-08-19T03:57:46.127Z,93.01
2022-08-19T04:00:19.019Z,92.88
2022-08-19T04:02:58.331Z,92.84
2022-08-19T04:05:32.869Z,93.42
2022-08-19T04:08:01.817Z,93.19
2022-08-19T04:10:30.370Z,93.46
2022-08-19T04:13:00.089Z,93.43
2022-08-19T04:15:34.514Z,93.24
2022-08-19T04:18:03.093Z,93.30
2022-08-19T04:20:33.412Z,93.29
2022-08-19T04:23:04.323Z,93.49
2022-08-19T04:25:37.997Z,93.70
2022-08-19T04:28:08.249Z,93.69
2022-08-19T04:30:41.573Z,93.53
2022-08-19T04:33:10.675Z,93.55
2022-08-19T04:35:41.233Z,93.70
2022-08-19T04:38:10.201Z,93.62
2022-08-19T04:41:00.916Z,93.76
2022-08-19T04:43:30.780Z,93.85
2022-08-19T04:46:00.814Z,93.73
2022-08-19T04:48:29.848Z,93.78
2022-08-19T04:51:04.187Z,93.75
2022-08-19T04:53:38.050Z,93.85
2022-08-19T04:56:09.294Z,93.80
2022-08-19T04:58:41.997Z,93.91
2022-08-19T05:01:12.009Z,94.14
2022-08-19T05:03:44.059Z,94.04
2022-08-19T05:06:18.055Z,94.06
2022-08-19T05:08:48.171Z,93.95
2022-08-19T05:11:25.903Z,93.88
2022-08-19T05:13:57.087Z,93.71
2022-08-19T05:16:27.626Z,93.57
2022-08-19T05:19:14.831Z,93.44
2022-08-19T05:22:01.976Z,93.14
2022-08-19T05:24:31.860Z,93.07
2022-08-19T05:27:01.015Z,92.92
2022-08-19T05:29:40.125Z,92.69
2022-08-19T05:32:12.849Z,92.51
2022-08-19T05:34:41.269Z,92.62
2022-08-19T05:37:11.502Z,92.29
2022-08-19T05:39:41.540Z,92.12
2022-08-19T05:42:12.405Z,91.85
2022-08-19T05:44:46.977Z,91.76
2022-08-19T05:47:20.694Z,91.55
2022-08-19T05:49:50.808Z,91.60
2022-08-19T05:52:25.849Z,91.27
2022-08-19T05:54:56.858Z,91.03
2022-08-19T05:57:25.709Z,90.69
2022-08-19T05:59:58.145Z,90.83
2022-08-19T06:02:32.456Z,90.66
2022-08-19T06:05:01.217Z,90.45
2022-08-19T06:07:32.746Z,90.59
2022-08-19T06:10:01.566Z,90.41
2022-08-19T06:12:32.697Z,90.31
2022-08-19T06:15:03.721Z,90.26
2022-08-19T06:17:32.707Z,90.24
2022-08-19T06:20:04.462Z,90.13
2022-08-19T06:22:35.123Z,90.27
2022-08-19T06:25:05.139Z,89.74
2022-08-19T06:27:34.719Z,89.95
2022-08-19T06:30:05.660Z,89.75
2022-08-19T06:32:34.500Z,90.00
2022-08-19T06:35:05.543Z,89.85
2022-08-19T06:37:33.830Z,89.85
2022-08-19T06:40:02.445Z,89.89
2022-08-19T06:42:39.327Z,89.71
2022-08-19T06:45:15.806Z,89.92
2022-08-19T06:47:49.330Z,89.55
2022-08-19T06:50:18.249Z,89.51
2022-08-19T06:52:51.174Z,89.41
2022-08-19T06:55:19.540Z,89.63
2022-08-19T06:57:49.200Z,89.64
2022-08-19T07:00:19.181Z,89.46
2022-08-19T07:02:53.221Z,89.59
2022-08-19T07:05:41.179Z,89.05
2022-08-19T07:08:20.678Z,88.88
2022-08-19T07:10:52.380Z,88.86
2022-08-19T07:13:29.660Z,88.62
2022-08-19T07:16:05.741Z,88.97
2022-08-19T07:18:43.884Z,88.89
2022-08-19T07:21:15.767Z,89.11
2022-08-19T07:23:47.506Z,88.73
2022-08-19T07:26:18.091Z,89.20
2022-08-19T07:28:51.517Z,89.24
2022-08-19T07:31:31.169Z,88.86
2022-08-19T07:34:03.485Z,88.83
2022-08-19T07:36:33.592Z,88.80
2022-08-19T07:39:05.356Z,89.44
2022-08-19T07:41:33.987Z,89.02
2022-08-19T07:44:04.771Z,88.54
2022-08-19T07:46:35.871Z,88.39
2022-08-19T07:49:05.593Z,88.54
2022-08-19T07:51:36.523Z,88.79
2022-08-19T07:54:05.927Z,87.64
2022-08-19T07:56:37.535Z,87.48
2022-08-19T07:59:06.163Z,87.51
2022-08-19T08:01:41.832Z,87.45
2022-08-19T08:04:28.837Z,87.21
2022-08-19T08:07:14.863Z,88.31
2022-08-19T08:09:49.520Z,88.04
2022-08-19T08:12:34.161Z,87.94
2022-08-19T08:15:08.242Z,87.69
2022-08-19T08:17:49.044Z,87.54
2022-08-19T08:20:18.951Z,87.84
2022-08-19T08:23:06.079Z,87.41
2022-08-19T08:25:35.347Z,87.74
2022-08-19T08:28:07.264Z,88.03
2022-08-19T08:30:38.297Z,88.05
2022-08-19T08:33:07.976Z,87.93
2022-08-19T08:35:37.795Z,87.38
2022-08-19T08:38:06.458Z,87.26
2022-08-19T08:40:41.855Z,87.43
2022-08-19T08:43:16.147Z,87.80
2022-08-19T08:45:53.919Z,87.91
2022-08-19T08:48:34.246Z,87.94
2022-08-19T08:51:10.636Z,87.89
2022-08-19T08:53:41.963Z,87.64
2022-08-19T08:56:17.144Z,87.70
2022-08-19T08:58:56.586Z,88.06
2022-08-19T09:01:24.893Z,87.81
2022-08-19T09:04:03.096Z,87.74
2022-08-19T09:06:41.006Z,87.90
2022-08-19T09:09:16.808Z,88.25
2022-08-19T09:12:01.787Z,87.99
2022-08-19T09:14:50.692Z,88.35
2022-08-19T09:17:22.051Z,88.53
2022-08-19T09:19:57.533Z,88.76
2022-08-19T09:22:27.895Z,89.17
2022-08-19T09:24:57.691Z,89.34
2022-08-19T09:27:42.768Z,88.86
2022-08-19T09:30:16.327Z,89.01
2022-08-19T09:32:53.063Z,89.24
2022-08-19T09:35:24.953Z,89.05
2022-08-19T09:38:00.059Z,89.21
2022-08-19T09:40:37.778Z,89.38
2022-08-19T09:43:13.035Z,89.31
2022-08-19T09:45:42.761Z,89.39
2022-08-19T09:48:19.095Z,88.90
2022-08-19T09:50:53.292Z,88.54
2022-08-19T09:53:26.598Z,88.82
2022-08-19T09:56:00.829Z,88.58
2022-08-19T09:58:37.149Z,88.30
2022-08-19T10:01:07.121Z,88.30
2022-08-19T10:03:38.454Z,88.16
2022-08-19T10:06:15.150Z,88.06
2022-08-19T10:08:50.416Z,87.88
2022-08-19T10:11:28.209Z,87.55
2022-08-19T10:14:03.294Z,87.70
2022-08-19T10:16:31.599Z,87.77
2022-08-19T10:19:11.681Z,87.50
2022-08-19T10:21:42.493Z,87.94
2022-08-19T10:24:11.439Z,87.89
2022-08-19T10:26:43.083Z,86.99
2022-08-19T10:29:32.853Z,86.99
2022-08-19T10:32:02.590Z,86.81
2022-08-19T10:34:34.386Z,86.10
2022-08-19T10:37:10.738Z,86.19
2022-08-19T10:39:43.359Z,86.18
2022-08-19T10:42:14.045Z,85.84
2022-08-19T10:44:43.593Z,85.01
2022-08-19T10:47:24.981Z,84.33
2022-08-19T10:50:13.105Z,82.65
2022-08-19T10:52:50.639Z,82.29
2022-08-19T10:55:42.765Z,81.62
2022-08-19T10:58:15.427Z,80.62
2022-08-19T11:00:54.908Z,80.34
2022-08-19T11:03:26.564Z,79.99
2022-08-19T11:06:07.833Z,80.44
2022-08-19T11:08:41.356Z,80.20
2022-08-19T11:11:10.315Z,79.66
2022-08-19T11:13:41.245Z,80.11
2022-08-19T11:16:21.158Z,80.18
2022-08-19T11:18:52.964Z,78.72
2022-08-19T11:21:26.038Z,79.15
2022-08-19T11:24:03.203Z,77.76
2022-08-19T11:26:34.092Z,77.38
2022-08-19T11:29:07.391Z,78.14
2022-08-19T11:31:39.395Z,77.21
2022-08-19T11:34:09.952Z,76.39
2022-08-19T11:36:46.384Z,76.26
2022-08-19T11:39:24.389Z,76.43
2022-08-19T11:41:56.279Z,76.50
2022-08-19T11:44:28.747Z,75.86
2022-08-19T11:47:08.764Z,76.76
2022-08-19T11:49:40.738Z,76.51
2022-08-19T11:52:14.581Z,76.96
2022-08-19T11:54:44.319Z,77.81
2022-08-19T11:57:17.867Z,78.07
2022-08-19T11:59:51.531Z,78.64
2022-08-19T12:02:20.161Z,78.31
2022-08-19T12:04:51.206Z,78.47
2022-08-19T12:07:19.664Z,76.66
2022-08-19T12:09:50.589Z,76.70
2022-08-19T12:12:19.106Z,76.46
2022-08-19T12:14:47.591Z,75.82
2022-08-19T12:17:16.254Z,76.76
2022-08-19T12:19:44.638Z,77.44
2022-08-19T12:22:13.413Z,78.55
2022-08-19T12:24:44.563Z,77.38
2022-08-19T12:27:32.179Z,77.24
2022-08-19T12:30:10.037Z,76.78
2022-08-19T12:32:38.660Z,76.23
2022-08-19T12:35:10.073Z,76.50
2022-08-19T12:37:41.573Z,75.70
2022-08-19T12:40:12.987Z,75.05
2022-08-19T12:42:43.307Z,75.55
2022-08-19T12:45:13.028Z,73.61
2022-08-19T12:47:46.179Z,73.56
2022-08-19T12:50:16.022Z,73.99
2022-08-19T12:52:44.326Z,76.20
2022-08-19T12:55:15.391Z,76.01
2022-08-19T12:57:45.107Z,75.31
2022-08-19T13:00:15.878Z,73.78
2022-08-19T13:02:46.560Z,73.72
2022-08-19T13:05:21.077Z,75.85
2022-08-19T13:07:49.610Z,70.28
2022-08-19T13:10:24.502Z,71.51
2022-08-19T13:12:57.179Z,72.14
2022-08-19T13:15:26.108Z,71.55
2022-08-19T13:17:56.926Z,70.26
2022-08-19T13:20:26.489Z,71.96
2022-08-19T13:22:58.269Z,73.93
2022-08-19T13:25:27.619Z,75.75
2022-08-19T13:28:00.238Z,73.90
2022-08-19T13:30:46.145Z,75.75
2022-08-19T13:33:15.571Z,74.17
2022-08-19T13:35:49.966Z,74.38
2022-08-19T13:38:22.757Z,73.91
2022-08-19T13:40:52.492Z,73.57
2022-08-19T13:43:24.022Z,73.38
2022-08-19T13:45:54.837Z,72.25
2022-08-19T13:48:24.646Z,73.00
2022-08-19T13:50:54.312Z,73.57
2022-08-19T13:53:22.593Z,73.56
2022-08-19T13:55:52.050Z,74.51
2022-08-19T13:58:22.017Z,76.37
2022-08-19T14:00:50.745Z,75.99
2022-08-19T14:03:23.910Z,76.52
2022-08-19T14:05:53.449Z,77.50
2022-08-19T14:08:21.887Z,77.57
2022-08-19T14:10:51.682Z,79.52
2022-08-19T14:13:23.566Z,79.93
2022-08-19T14:15:54.165Z,81.84
2022-08-19T14:18:22.997Z,84.84
2022-08-19T14:20:57.262Z,87.47
2022-08-19T14:23:28.911Z,90.31
2022-08-19T14:26:05.918Z,91.77
2022-08-19T14:28:36.063Z,92.07
2022-08-19T14:31:04.356Z,92.53
2022-08-19T14:33:33.607Z,90.37
2022-08-19T14:36:03.064Z,91.28
2022-08-19T14:38:34.344Z,91.89
2022-08-19T14:41:17.383Z,90.87
2022-08-19T14:43:48.411Z,89.81
2022-08-19T14:46:21.989Z,90.02
2022-08-19T14:48:56.092Z,88.22
2022-08-19T14:51:27.712Z,88.86
2022-08-19T14:53:59.072Z,88.44
2022-08-19T14:56:29.177Z,87.84
2022-08-19T14:59:02.094Z,87.04
2022-08-19T15:01:30.568Z,85.98
2022-08-19T15:04:04.023Z,84.36
2022-08-19T15:06:32.722Z,84.61
2022-08-19T15:09:04.229Z,83.99
2022-08-19T15:11:35.108Z,79.21
2022-08-19T15:14:06.288Z,75.60
2022-08-19T15:16:34.842Z,74.44
2022-08-19T15:19:03.562Z,74.38
2022-08-19T15:21:33.532Z,74.28
2022-08-19T15:24:02.721Z,73.24
2022-08-19T15:26:36.246Z,73.25
2022-08-19T15:29:06.986Z,71.51
2022-08-19T15:31:38.073Z,71.85
2022-08-19T15:34:10.201Z,71.22
2022-08-19T15:36:39.087Z,70.43
2022-08-19T15:39:14.149Z,69.95
2022-08-19T15:41:45.240Z,73.49
2022-08-19T15:44:18.622Z,75.80
2022-08-19T15:46:50.390Z,76.56
2022-08-19T15:49:21.101Z,79.87
2022-08-19T15:51:51.990Z,79.91
2022-08-19T15:54:23.382Z,80.15
2022-08-19T15:57:12.825Z,79.06
2022-08-19T16:00:00.128Z,82.36
2022-08-19T16:02:53.738Z,83.60
2022-08-19T16:05:46.093Z,84.41
2022-08-19T16:08:15.570Z,85.93
2022-08-19T16:10:46.034Z,85.57
2022-08-19T16:13:17.072Z,85.80
2022-08-19T16:15:46.809Z,85.71
2022-08-19T16:18:15.578Z,85.58
2022-08-19T16:20:44.344Z,84.30
2022-08-19T16:23:12.598Z,82.82
2022-08-19T16:25:40.895Z,82.88
2022-08-19T16:28:10.629Z,81.56
2022-08-19T16:30:43.116Z,84.64
2022-08-19T16:33:23.285Z,83.88
2022-08-19T16:36:00.065Z,83.86
2022-08-19T16:38:31.434Z,85.36
2022-08-19T16:41:01.462Z,86.01
2022-08-19T16:43:32.110Z,85.87
2022-08-19T16:46:01.656Z,85.92
2022-08-19T16:48:34.771Z,86.06
2022-08-19T16:51:09.441Z,85.82
2022-08-19T16:53:43.029Z,85.63
2022-08-19T16:56:12.762Z,87.09
2022-08-19T16:58:41.086Z,85.96
2022-08-19T17:01:11.301Z,85.76
2022-08-19T17:03:41.267Z,86.18
2022-08-19T17:06:15.892Z,85.84
2022-08-19T17:08:52.915Z,86.88
2022-08-19T17:11:32.291Z,85.46
2022-08-19T17:14:02.228Z,85.64
2022-08-19T17:16:34.877Z,86.24
2022-08-19T17:19:07.044Z,87.14
2022-08-19T17:21:37.800Z,87.13
2022-08-19T17:24:08.758Z,86.82
2022-08-19T17:26:42.701Z,86.35
2022-08-19T17:29:12.037Z,86.17
2022-08-19T17:31:40.360Z,86.61
2022-08-19T17:34:13.027Z,87.63
2022-08-19T17:36:43.872Z,88.50
2022-08-19T17:39:12.148Z,88.44
2022-08-19T17:41:40.478Z,88.78
2022-08-19T17:44:13.135Z,88.54
2022-08-19T17:46:42.644Z,89.38
2022-08-19T17:49:14.466Z,89.55
2022-08-19T17:51:47.132Z,89.34
2022-08-19T17:54:18.879Z,89.47
2022-08-19T17:56:51.207Z,90.12
2022-08-19T17:59:19.542Z,90.01
2022-08-19T18:01:53.681Z,89.37
2022-08-19T18:04:25.490Z,89.52
2022-08-19T18:06:55.424Z,89.65
2022-08-19T18:09:26.357Z,89.99
2022-08-19T18:11:56.983Z,90.75
2022-08-19T18:14:33.726Z,91.22
2022-08-19T18:17:06.345Z,91.18
2022-08-19T18:19:41.442Z,91.69
2022-08-19T18:22:14.085Z,91.52
2022-08-19T18:24:46.051Z,91.80
2022-08-19T18:27:17.488Z,92.12
2022-08-19T18:29:49.031Z,92.12
2022-08-19T18:32:23.118Z,92.63
2022-08-19T18:34:56.456Z,92.81
2022-08-19T18:37:26.839Z,92.66
2022-08-19T18:40:28.813Z,92.70
2022-08-19T18:43:16.603Z,92.08
2022-08-19T18:46:03.031Z,92.65
2022-08-19T18:48:52.683Z,91.92
2022-08-19T18:51:28.160Z,90.80
2022-08-19T18:54:00.036Z,91.43
2022-08-19T18:56:32.257Z,91.10
2022-08-19T18:59:02.601Z,91.30
2022-08-19T19:01:35.552Z,91.52
2022-08-19T19:04:07.010Z,92.50
2022-08-19T19:06:40.434Z,92.43
2022-08-19T19:09:10.848Z,92.20
2022-08-19T19:11:41.071Z,92.10
2022-08-19T19:14:23.028Z,91.98
2022-08-19T19:17:04.414Z,93.43
2022-08-19T19:19:42.371Z,93.75
2022-08-19T19:22:14.265Z,93.25
2022-08-19T19:24:44.244Z,93.52
2022-08-19T19:27:14.519Z,93.45
2022-08-19T19:29:47.427Z,93.95
2022-08-19T19:32:23.388Z,94.29
2022-08-19T19:34:52.787Z,94.46
2022-08-19T19:37:23.477Z,94.23
2022-08-19T19:39:54.335Z,94.46
2022-08-19T19:42:24.202Z,95.26
2022-08-19T19:44:56.511Z,95.17
2022-08-19T19:47:25.701Z,95.24
2022-08-19T19:52:49.972Z,95.65
2022-08-19T19:55:21.531Z,96.01
2022-08-19T19:57:53.771Z,96.67
2022-08-19T20:00:26.481Z,97.63
2022-08-19T20:02:56.870Z,98.21
2022-08-19T20:05:28.789Z,99.29
2022-08-19T20:08:16.169Z,99.82
2022-08-19T20:10:46.963Z,100.22
2022-08-19T20:13:17.797Z,100.32
2022-08-19T20:15:46.685Z,99.81
2022-08-19T20:18:15.379Z,100.35
2022-08-19T20:20:45.032Z,100.59
2022-08-19T20:23:15.229Z,100.99
2022-08-19T20:25:46.865Z,100.99
2022-08-19T20:28:17.924Z,101.01
2022-08-19T20:30:48.065Z,100.65
2022-08-19T20:33:19.649Z,100.52
2022-08-19T20:35:50.977Z,100.61
2022-08-19T20:38:20.619Z,100.69
2022-08-19T20:40:48.880Z,100.10
2022-08-19T20:43:17.141Z,99.67
2022-08-19T20:45:48.065Z,99.26
2022-08-19T20:48:21.027Z,99.51
2022-08-19T20:50:49.477Z,99.51
2022-08-19T20:53:23.757Z,99.81
2022-08-19T20:55:59.945Z,100.06
2022-08-19T20:58:28.928Z,100.22
2022-08-19T21:01:00.864Z,100.26
2022-08-19T21:03:32.539Z,100.17
2022-08-19T21:06:04.382Z,100.44
2022-08-19T21:08:34.269Z,100.51
2022-08-19T21:11:03.453Z,100.27
2022-08-19T21:13:32.291Z,100.32
2022-08-19T21:16:01.981Z,100.06
2022-08-19T21:18:35.441Z,100.14
2022-08-19T21:21:06.897Z,100.07
2022-08-19T21:23:37.000Z,100.00
2022-08-19T21:26:06.612Z,99.96
2022-08-19T21:28:36.372Z,100.24
2022-08-19T21:31:07.125Z,100.31
2022-08-19T21:33:39.069Z,99.77
2022-08-19T21:36:08.155Z,99.58
2022-08-19T21:38:38.926Z,99.43
2022-08-19T21:41:08.352Z,99.33
2022-08-19T21:43:37.386Z,99.51
2022-08-19T21:46:06.083Z,99.55
2022-08-19T21:48:34.435Z,99.60
2022-08-19T21:51:02.981Z,99.58
2022-08-19T21:53:34.429Z,99.30
2022-08-19T21:56:06.459Z,99.04
2022-08-19T21:58:38.119Z,99.24
2022-08-19T22:01:08.150Z,99.31
2022-08-19T22:03:38.640Z,99.03
2022-08-19T22:06:07.426Z,98.82
2022-08-19T22:08:42.247Z,98.40
2022-08-19T22:11:14.368Z,98.48
2022-08-19T22:13:42.646Z,98.55
2022-08-19T22:16:14.120Z,98.89
2022-08-19T22:18:48.473Z,98.82
2022-08-19T22:21:37.419Z,98.53
2022-08-19T22:24:11.872Z,98.43
2022-08-19T22:26:49.222Z,98.29
2022-08-19T22:29:17.827Z,97.98
2022-08-19T22:31:54.311Z,97.79
2022-08-19T22:34:23.239Z,97.51
2022-08-19T22:36:51.749Z,97.66
2022-08-19T22:39:22.762Z,97.38
2022-08-19T22:41:52.702Z,96.91
2022-08-19T22:44:20.995Z,95.67
2022-08-19T22:46:50.441Z,96.04
2022-08-19T22:49:21.148Z,95.70
2022-08-19T22:52:06.645Z,95.59
2022-08-19T22:54:36.221Z,95.00
2022-08-19T22:57:06.061Z,95.05
2022-08-19T22:59:36.042Z,95.52
2022-08-19T23:02:04.744Z,95.23
2022-08-19T23:04:37.160Z,95.23
2022-08-19T23:07:05.985Z,95.33
2022-08-19T23:09:34.410Z,95.93
2022-08-19T23:12:09.520Z,95.75
2022-08-19T23:14:38.308Z,95.85
2022-08-19T23:17:06.969Z,95.44
2022-08-19T23:19:38.410Z,95.68
2022-08-19T23:22:08.395Z,94.32
2022-08-19T23:24:39.361Z,93.90
2022-08-19T23:27:26.730Z,93.89
2022-08-19T23:30:12.460Z,93.59
2022-08-19T23:32:43.284Z,94.11
2022-08-19T23:35:12.386Z,94.06
2022-08-19T23:37:43.669Z,94.23
2022-08-19T23:40:12.535Z,94.32
2022-08-19T23:42:46.641Z,93.97
2022-08-19T23:45:15.826Z,94.33
2022-08-19T23:47:53.360Z,94.53
2022-08-19T23:50:22.765Z,93.78
2022-08-19T23:52:57.219Z,93.68
2022-08-19T23:55:27.752Z,94.18
2022-08-19T23:57:58.190Z,94.00
